Time;durP1;ratioP1;P1;durP2;ratioP2;P2;SDS_P1;SDS_P2;PMS_P1;PMS_P2;Temp;Humidity;BMP_temperature;BMP_pressure;BME280_temperature;BME280_humidity;BME280_pressure;Samples;Min_cycle;Max_cycle;Signal;HPM_P1;HPM_P2
2023/09/15 00:02:25;;;;;;;20.52;18.08;;;;;;;10.89;100.00;102000.59;5009718;28;20061;-79
2023/09/15 00:04:51;;;;;;;21.35;19.05;;;;;;;10.91;100.00;102009.97;5009718;28;20059;-76
2023/09/15 00:07:17;;;;;;;21.70;18.77;;;;;;;10.88;100.00;102010.09;5009577;28;20029;-76
2023/09/15 00:09:42;;;;;;;21.48;19.17;;;;;;;10.84;100.00;102007.75;5009854;28;20101;-76
2023/09/15 00:12:08;;;;;;;22.52;19.90;;;;;;;10.83;100.00;102006.91;5009324;28;20026;-76
2023/09/15 00:14:38;;;;;;;21.45;19.25;;;;;;;10.80;100.00;102001.84;5009552;28;20029;-76
2023/09/15 00:17:05;;;;;;;20.83;18.73;;;;;;;10.69;100.00;101991.16;5009775;28;20034;-77
2023/09/15 00:19:31;;;;;;;21.15;18.65;;;;;;;10.77;100.00;102001.16;5009535;28;20022;-79
2023/09/15 00:21:56;;;;;;;20.95;18.58;;;;;;;10.72;100.00;102000.53;5009264;28;20033;-77
2023/09/15 00:24:22;;;;;;;20.92;18.55;;;;;;;10.71;100.00;102006.59;5009497;28;20371;-75
2023/09/15 00:26:48;;;;;;;21.15;18.50;;;;;;;10.70;100.00;102002.34;5008984;28;20041;-76
2023/09/15 00:29:14;;;;;;;24.05;19.42;;;;;;;10.68;100.00;101996.41;5009457;28;20026;-76
2023/09/15 00:31:40;;;;;;;22.27;18.88;;;;;;;10.64;100.00;101990.53;5009430;28;20037;-76
2023/09/15 00:34:05;;;;;;;22.25;19.45;;;;;;;10.58;100.00;101988.22;5009529;28;20030;-76
2023/09/15 00:36:32;;;;;;;21.85;19.35;;;;;;;10.45;100.00;101972.44;5009124;28;20125;-78
2023/09/15 00:38:57;;;;;;;21.25;19.02;;;;;;;10.49;100.00;101981.72;5009035;28;20554;-75
2023/09/15 00:41:22;;;;;;;22.75;19.52;;;;;;;10.53;100.00;101993.59;5010330;28;20058;-76
2023/09/15 00:43:48;;;;;;;20.95;18.60;;;;;;;10.33;100.00;101954.91;5012604;28;20105;-75
2023/09/15 00:46:13;;;;;;;21.58;19.20;;;;;;;10.50;100.00;101991.13;5012536;28;20038;-75
2023/09/15 00:48:39;;;;;;;22.08;18.88;;;;;;;10.48;100.00;101987.78;5019068;22;20553;-76
2023/09/15 00:51:07;;;;;;;21.52;18.77;;;;;;;10.47;100.00;101986.13;5012318;28;20057;-75
2023/09/15 00:53:35;;;;;;;22.08;19.30;;;;;;;10.35;100.00;101971.16;5036180;23;20054;-77
2023/09/15 00:56:03;;;;;;;21.88;19.13;;;;;;;10.34;100.00;101975.50;5012292;28;20026;-76
2023/09/15 00:58:30;;;;;;;21.20;18.40;;;;;;;10.38;100.00;101981.34;5012198;28;20540;-76
2023/09/15 01:00:55;;;;;;;20.88;18.45;;;;;;;10.23;100.00;101959.63;5012458;28;20040;-74
2023/09/15 01:03:22;;;;;;;21.52;19.23;;;;;;;10.20;100.00;101959.72;5142180;22;20426;-75
2023/09/15 01:05:50;;;;;;;23.13;19.65;;;;;;;9.20;100.00;101807.50;5428194;23;20005;-74
2023/09/15 01:08:55;;;;;;;22.10;18.95;;;;;;;10.27;100.00;101975.81;5009463;28;20061;-76
2023/09/15 01:11:37;;;;;;;21.38;18.85;;;;;;;10.22;100.00;101977.75;5012099;28;20036;-74
2023/09/15 01:14:21;;;;;;;20.55;18.33;;;;;;;9.49;100.00;101850.13;5079913;28;20095;-78
2023/09/15 01:16:56;;;;;;;21.33;18.83;;;;;;;9.04;100.00;101786.69;5011971;28;20471;-74
2023/09/15 01:22:22;;;;;;;21.17;18.88;;;;;;;10.07;100.00;101964.59;4373621;26;20059;-78
2023/09/15 01:25:32;;;;;;;21.17;18.40;;;;;;;10.02;100.00;101957.94;5094596;28;20032;-74
2023/09/15 01:28:16;;;;;;;21.17;18.85;;;;;;;10.02;100.00;101961.34;5032716;28;20026;-74
2023/09/15 01:30:44;;;;;;;22.15;19.75;;;;;;;9.32;100.00;101853.41;5027246;28;20042;-76
2023/09/15 01:33:13;;;;;;;21.83;18.77;;;;;;;9.94;100.00;101957.44;5032754;28;20040;-74
2023/09/15 01:35:38;;;;;;;21.42;19.13;;;;;;;9.93;100.00;101958.31;5032316;28;20033;-75
2023/09/15 01:38:04;;;;;;;22.05;18.90;;;;;;;9.74;100.00;101924.75;5032536;28;20043;-75
2023/09/15 01:40:30;;;;;;;21.38;18.20;;;;;;;9.78;100.00;101926.28;5032466;28;20033;-75
2023/09/15 01:42:56;;;;;;;21.40;18.27;;;;;;;9.87;100.00;101949.09;5032592;28;20032;-75
2023/09/15 01:45:21;;;;;;;20.90;18.70;;;;;;;9.71;100.00;101919.69;5032555;28;20393;-77
2023/09/15 01:47:48;;;;;;;22.48;19.13;;;;;;;9.60;100.00;101909.81;5032657;28;20040;-75
2023/09/15 01:50:15;;;;;;;23.10;18.73;;;;;;;9.80;100.00;101941.69;5032088;28;20029;-76
2023/09/15 01:52:42;;;;;;;21.13;18.60;;;;;;;9.69;100.00;101937.81;5031234;28;20042;-76
2023/09/15 01:55:08;;;;;;;19.88;17.83;;;;;;;9.67;100.00;101931.88;5032067;28;20591;-76
2023/09/15 01:57:33;;;;;;;22.25;18.30;;;;;;;9.58;100.00;101916.78;5036424;28;20063;-79
2023/09/15 01:59:59;;;;;;;20.48;18.10;;;;;;;9.57;100.00;101922.84;5138992;22;20377;-81
2023/09/15 02:02:24;;;;;;;20.92;18.52;;;;;;;9.58;100.00;101923.69;5011381;28;20115;-76
2023/09/15 02:04:50;;;;;;;19.73;17.63;;;;;;;9.64;100.00;101936.34;5011562;28;20395;-75
2023/09/15 02:07:15;;;;;;;20.80;18.55;;;;;;;9.61;100.00;101934.69;5011238;28;20109;-75
2023/09/15 02:09:40;;;;;;;21.08;17.67;;;;;;;9.52;100.00;101929.91;5011386;28;20052;-75
2023/09/15 02:12:06;;;;;;;20.25;18.13;;;;;;;9.56;100.00;101943.53;5011216;28;20038;-77
2023/09/15 02:14:32;;;;;;;24.85;18.30;;;;;;;9.52;100.00;101941.97;5011455;28;20071;-75
2023/09/15 02:16:57;;;;;;;18.80;16.83;;;;;;;9.52;100.00;101935.06;5011240;28;20476;-75
2023/09/15 02:19:24;;;;;;;19.80;17.70;;;;;;;9.45;100.00;101942.25;5010993;28;20086;-75
2023/09/15 02:21:49;;;;;;;19.13;17.13;;;;;;;9.36;100.00;101921.16;5064405;23;20057;-76
2023/09/15 02:24:16;;;;;;;20.83;18.27;;;;;;;9.35;100.00;101932.38;5011133;28;20132;-76
2023/09/15 02:26:41;;;;;;;20.23;18.02;;;;;;;9.37;100.00;101933.13;5010966;28;20108;-75
2023/09/15 02:29:06;;;;;;;19.27;17.23;;;;;;;9.42;100.00;101947.50;5011452;28;20481;-76
2023/09/15 02:31:32;;;;;;;19.33;16.98;;;;;;;9.44;100.00;101938.00;5010763;28;20490;-77
2023/09/15 02:33:59;;;;;;;22.13;17.80;;;;;;;9.39;100.00;101939.91;5010681;28;20022;-76
2023/09/15 02:36:26;;;;;;;22.00;17.83;;;;;;;9.25;100.00;101907.84;5010693;28;20018;-75
2023/09/15 02:38:54;;;;;;;19.95;17.92;;;;;;;9.35;100.00;101922.88;5010850;28;20034;-76
2023/09/15 02:41:22;;;;;;;21.08;18.17;;;;;;;9.38;100.00;101933.06;5010978;28;20026;-74
2023/09/15 02:43:48;;;;;;;20.40;17.92;;;;;;;9.36;100.00;101929.72;5010850;28;20026;-75
2023/09/15 02:46:13;;;;;;;20.23;17.30;;;;;;;9.35;100.00;101930.63;5010512;28;20163;-80
2023/09/15 02:48:41;;;;;;;21.13;17.05;;;;;;;9.32;100.00;101925.56;5010759;28;20037;-76
2023/09/15 02:51:06;;;;;;;19.85;17.73;;;;;;;9.29;100.00;101920.53;5010466;28;20030;-74
2023/09/15 02:53:32;;;;;;;19.55;17.15;;;;;;;9.25;100.00;101924.16;5010582;28;20118;-75
2023/09/15 02:55:59;;;;;;;19.55;17.27;;;;;;;9.28;100.00;101918.88;5002641;28;20390;-78
2023/09/15 02:58:25;;;;;;;20.35;17.92;;;;;;;9.14;100.00;101903.09;5010635;28;20028;-78
2023/09/15 03:00:50;;;;;;;19.02;17.00;;;;;;;9.22;100.00;101926.84;5010627;28;20034;-78
2023/09/15 03:03:16;;;;;;;20.15;17.52;;;;;;;9.20;100.00;101924.31;5010647;28;20030;-80
2023/09/15 03:05:41;;;;;;;19.55;17.33;;;;;;;9.08;100.00;101909.34;5007441;28;20108;-80
2023/09/15 03:08:06;;;;;;;19.17;17.10;;;;;;;9.20;100.00;101920.91;5010450;28;20455;-81
2023/09/15 03:10:34;;;;;;;20.13;17.40;;;;;;;9.06;100.00;101902.59;5010392;28;20057;-78
2023/09/15 03:12:59;;;;;;;20.42;16.95;;;;;;;9.08;100.00;101904.19;5010403;28;20026;-76
2023/09/15 03:15:24;;;;;;;20.17;17.42;;;;;;;9.04;100.00;101900.06;5010353;28;20029;-75
2023/09/15 03:17:50;;;;;;;19.27;16.25;;;;;;;8.91;100.00;101894.56;5010321;28;20025;-74
2023/09/15 03:20:19;;;;;;;20.55;17.23;;;;;;;9.09;100.00;101916.19;5024488;28;20040;-75
2023/09/15 03:22:46;;;;;;;20.63;18.42;;;;;;;9.11;100.00;101918.69;5009783;28;20077;-75
2023/09/15 03:25:14;;;;;;;20.98;17.63;;;;;;;9.06;100.00;101918.06;5010106;28;20053;-76
2023/09/15 03:27:39;;;;;;;18.73;16.70;;;;;;;9.03;100.00;101908.69;5008414;28;20034;-76
2023/09/15 03:30:06;;;;;;;19.92;17.13;;;;;;;9.02;100.00;101912.16;5009924;28;20116;-75
2023/09/15 03:32:32;;;;;;;18.50;16.63;;;;;;;8.84;100.00;101893.09;5010030;28;20475;-76
2023/09/15 03:34:57;;;;;;;20.48;16.42;;;;;;;8.97;100.00;101908.09;5010049;28;20116;-79
2023/09/15 03:37:23;;;;;;;19.15;17.10;;;;;;;8.72;100.00;101877.28;5009806;28;20030;-75
2023/09/15 03:39:48;;;;;;;19.00;16.45;;;;;;;8.84;100.00;101897.41;5009972;28;20022;-75
2023/09/15 03:42:13;;;;;;;18.02;16.13;;;;;;;8.84;100.00;101893.09;5010095;28;20038;-75
2023/09/15 03:44:39;;;;;;;19.02;17.10;;;;;;;8.82;100.00;101894.91;5010089;28;20018;-78
2023/09/15 03:47:04;;;;;;;20.27;17.35;;;;;;;8.91;100.00;101906.59;5010142;28;20026;-76
2023/09/15 03:49:30;;;;;;;19.50;16.58;;;;;;;8.73;100.00;101878.97;5008165;28;20038;-77
2023/09/15 03:51:56;;;;;;;18.65;16.60;;;;;;;8.71;100.00;101886.75;5009705;28;20037;-77
2023/09/15 03:54:22;;;;;;;20.23;17.27;;;;;;;8.85;100.00;101905.13;5010036;28;20018;-80
2023/09/15 03:56:48;;;;;;;18.42;16.42;;;;;;;8.72;100.00;101887.59;5008498;28;20495;-76
2023/09/15 03:59:13;;;;;;;18.25;16.27;;;;;;;8.74;100.00;101884.06;5010326;28;20053;-78
2023/09/15 04:01:39;;;;;;;19.45;16.77;;;;;;;8.79;100.00;101910.47;5009824;28;20061;-80
2023/09/15 04:04:04;;;;;;;19.42;17.00;;;;;;;8.80;100.00;101901.84;5009938;28;20062;-78
2023/09/15 04:06:31;;;;;;;18.05;16.15;;;;;;;8.76;100.00;101902.03;5008546;28;20026;-79
2023/09/15 04:08:57;;;;;;;18.38;16.38;;;;;;;8.76;100.00;101904.63;5009701;28;20034;-79
2023/09/15 04:11:22;;;;;;;18.08;16.13;;;;;;;8.66;100.00;101885.28;5009383;28;20463;-79
2023/09/15 04:13:48;;;;;;;18.38;16.17;;;;;;;8.56;100.00;101872.75;5009976;28;20026;-76
2023/09/15 04:16:13;;;;;;;18.58;16.67;;;;;;;8.52;100.00;101862.59;5010681;28;20025;-81
2023/09/15 04:18:38;;;;;;;17.83;16.02;;;;;;;8.63;100.00;101878.47;5011927;28;20486;-79
2023/09/15 04:21:04;;;;;;;18.65;15.93;;;;;;;8.52;100.00;101871.16;5012948;28;20037;-75
2023/09/15 04:23:30;;;;;;;16.75;14.85;;;;;;;8.62;100.00;101887.09;5012776;28;20527;-80
2023/09/15 04:25:55;;;;;;;17.40;15.38;;;;;;;8.60;100.00;101886.31;5012941;28;20030;-81
2023/09/15 04:28:21;;;;;;;15.93;14.18;;;;;;;8.56;100.00;101885.63;5011536;28;20041;-77
2023/09/15 04:30:46;;;;;;;20.48;16.65;;;;;;;8.58;100.00;101886.38;5084108;22;20586;-75
2023/09/15 04:33:12;;;;;;;17.20;15.40;;;;;;;8.40;100.00;101858.75;5012948;28;20068;-75
2023/09/15 04:35:37;;;;;;;18.75;16.05;;;;;;;8.56;100.00;101885.63;5012856;28;20082;-74
2023/09/15 04:38:03;;;;;;;18.60;15.50;;;;;;;8.39;100.00;101859.66;5065602;23;20046;-74
2023/09/15 04:40:28;;;;;;;18.90;15.65;;;;;;;8.51;100.00;101881.53;5012571;28;20032;-77
2023/09/15 04:42:53;;;;;;;18.83;16.15;;;;;;;8.34;100.00;101859.81;5012838;28;20037;-76
2023/09/15 04:45:19;;;;;;;18.13;15.98;;;;;;;8.45;100.00;101880.00;5012674;28;20037;-75
2023/09/15 04:47:44;;;;;;;19.60;15.70;;;;;;;8.39;100.00;101863.97;5012666;28;20030;-76
2023/09/15 04:50:10;;;;;;;18.27;15.50;;;;;;;8.39;100.00;101872.53;5011206;28;20026;-74
2023/09/15 04:52:35;;;;;;;17.73;15.45;;;;;;;8.18;100.00;101840.69;5010726;28;20103;-79
2023/09/15 04:55:00;;;;;;;18.25;15.52;;;;;;;8.44;100.00;101887.78;5012336;28;20053;-80
2023/09/15 04:57:26;;;;;;;17.98;15.32;;;;;;;8.43;100.00;101896.41;5012469;28;20427;-81
2023/09/15 04:59:54;;;;;;;19.08;15.73;;;;;;;8.40;100.00;101883.66;5012326;28;20455;-81
2023/09/15 05:02:23;;;;;;;19.83;15.63;;;;;;;8.41;100.00;101888.75;5012509;28;20030;-81
2023/09/15 05:04:52;;;;;;;17.92;15.35;;;;;;;8.47;100.00;101893.69;5010923;28;20109;-75
2023/09/15 05:07:18;;;;;;;17.58;15.73;;;;;;;8.30;100.00;101875.41;5011939;28;20471;-81
2023/09/15 05:09:43;;;;;;;21.45;16.00;;;;;;;8.41;100.00;101891.31;5012138;28;20025;-81
2023/09/15 05:12:09;;;;;;;20.35;16.52;;;;;;;8.39;100.00;101882.81;5012668;28;20030;-81
2023/09/15 05:14:39;;;;;;;17.50;15.57;;;;;;;8.25;100.00;101857.53;5012139;28;20513;-80
2023/09/15 05:17:05;;;;;;;20.63;15.27;;;;;;;8.45;100.00;101895.44;5012512;28;20386;-80
2023/09/15 05:19:30;;;;;;;23.38;16.30;;;;;;;8.50;100.00;101887.56;5012241;28;20036;-79
2023/09/15 05:21:55;;;;;;;23.02;16.98;;;;;;;8.58;100.00;101893.28;5017062;28;20034;-81
2023/09/15 05:24:21;;;;;;;21.08;16.90;;;;;;;8.54;100.00;101889.97;5016981;28;20041;-80
2023/09/15 05:26:46;;;;;;;25.75;17.42;;;;;;;8.76;100.00;101902.03;5026441;22;20022;-82
2023/09/15 05:29:12;;;;;;;25.35;19.40;;;;;;;8.78;100.00;101907.97;5003622;28;20079;-79
2023/09/15 05:31:37;;;;;;;25.45;19.02;;;;;;;8.80;100.00;101891.56;5012092;28;20527;-81
2023/09/15 05:34:03;;;;;;;22.88;18.23;;;;;;;8.89;100.00;101901.50;5012063;28;20467;-81
2023/09/15 05:36:28;;;;;;;21.45;18.23;;;;;;;8.94;100.00;101911.63;5012101;28;20026;-76
2023/09/15 05:38:53;;;;;;;23.20;18.25;;;;;;;9.07;100.00;101901.69;5012108;28;20034;-80
2023/09/15 05:41:19;;;;;;;19.55;16.90;;;;;;;9.14;100.00;101909.13;5011962;28;20055;-79
2023/09/15 05:43:44;;;;;;;20.23;17.20;;;;;;;9.19;100.00;101916.66;5134899;23;20059;-77
2023/09/15 05:46:10;;;;;;;20.75;16.67;;;;;;;9.28;100.00;101910.31;5095023;28;20542;-76
2023/09/15 05:48:35;;;;;;;20.83;17.20;;;;;;;9.36;100.00;101906.53;5094637;28;20028;-81
2023/09/15 05:51:03;;;;;;;23.30;18.15;;;;;;;9.46;100.00;101909.56;5094679;28;20107;-79
2023/09/15 05:53:32;;;;;;;21.92;17.63;;;;;;;9.55;100.00;101904.03;5076407;28;20553;-78
2023/09/15 05:55:57;;;;;;;19.67;16.33;;;;;;;9.52;100.00;101895.56;5094537;28;20532;-81
2023/09/15 05:58:23;;;;;;;20.30;15.65;;;;;;;9.65;100.00;101904.50;5094693;28;20020;-80
2023/09/15 06:00:50;;;;;;;21.60;15.90;;;;;;;9.75;100.00;101910.94;5095306;28;20052;-82
2023/09/15 06:03:16;;;;;;;20.35;16.27;;;;;;;9.81;100.00;101908.06;5094176;28;20380;-79
2023/09/15 06:05:41;;;;;;;20.77;16.40;;;;;;;9.87;100.00;101902.66;5094359;28;20032;-81
2023/09/15 06:18:33;;;;;;;20.00;16.73;;;;;;;10.34;100.00;101917.84;3095340;23;20054;-81
2023/09/15 06:21:01;;;;;;;21.35;16.90;;;;;;;10.54;100.00;101915.22;5011255;28;20025;-82
2023/09/15 06:23:28;;;;;;;20.60;16.17;;;;;;;11.20;100.00;101917.28;5011038;28;20105;-82
2023/09/15 06:25:53;;;;;;;17.90;15.73;;;;;;;12.11;100.00;101918.81;4994244;28;20109;-82
2023/09/15 06:28:21;;;;;;;16.42;14.05;;;;;;;13.11;100.00;101896.97;5011248;28;20523;-78
2023/09/15 06:30:47;;;;;;;17.13;12.95;;;;;;;14.20;100.00;101901.81;5011058;28;20457;-78
2023/09/15 06:35:47;;;;;;;13.05;10.35;;;;;;;16.13;97.16;101919.63;5224898;23;20253;-79
2023/09/15 06:41:29;;;;;;;14.18;9.73;;;;;;;17.97;86.13;101894.00;5056365;22;20053;-80
2023/09/15 06:57:21;;;;;;;11.55;7.63;;;;;;;20.50;75.11;101833.66;5008799;23;20054;-78
2023/09/15 07:06:41;;;;;;;12.55;7.03;;;;;;;19.47;76.54;101895.88;4985678;23;20069;-82
2023/09/15 07:09:08;;;;;;;9.75;7.00;;;;;;;17.63;76.50;101862.59;5430542;22;21477;-80
2023/09/15 07:14:53;;;;;;;10.57;7.10;;;;;;;15.67;91.79;101818.56;5094431;22;20171;-80
2023/09/15 07:17:20;;;;;;;10.60;7.20;;;;;;;15.93;98.14;101886.28;5114583;22;20085;-81
2023/09/15 07:19:46;;;;;;;9.40;6.95;;;;;;;15.62;99.40;101858.88;4971445;28;20069;-81
2023/09/15 07:22:12;;;;;;;10.88;6.97;;;;;;;15.73;99.87;101891.09;4971591;28;20022;-83
2023/09/15 07:24:43;;;;;;;8.32;6.20;;;;;;;15.74;100.00;101879.72;4970891;28;20038;-80
2023/09/15 07:27:09;;;;;;;9.77;5.82;;;;;;;15.74;100.00;101881.50;4971200;28;20117;-81
2023/09/15 07:29:35;;;;;;;12.48;7.45;;;;;;;15.55;100.00;101875.84;4971170;28;20027;-81
2023/09/15 07:32:00;;;;;;;8.98;5.93;;;;;;;15.63;100.00;101874.41;4971049;28;20026;-81
2023/09/15 07:34:28;;;;;;;12.55;7.72;;;;;;;15.42;99.58;101861.00;4971130;28;20027;-81
2023/09/15 07:36:53;;;;;;;10.10;7.50;;;;;;;15.24;100.00;101836.25;4971285;28;20018;-82
2023/09/15 07:39:19;;;;;;;8.90;6.97;;;;;;;15.37;100.00;101850.09;4971237;28;20602;-75
2023/09/15 07:41:45;;;;;;;11.65;7.50;;;;;;;15.44;100.00;101860.94;4970675;28;20533;-82
2023/09/15 07:44:12;;;;;;;10.43;6.88;;;;;;;15.59;100.00;101869.47;4971107;28;20050;-82
2023/09/15 07:46:40;;;;;;;10.90;6.60;;;;;;;15.64;100.00;101868.28;4970833;28;20033;-76
2023/09/15 07:49:06;;;;;;;12.00;6.60;;;;;;;15.70;100.00;101869.59;4971090;28;20035;-75
2023/09/15 07:51:32;;;;;;;11.13;6.75;;;;;;;15.60;100.00;101847.69;4972450;28;20027;-75
2023/09/15 07:53:58;;;;;;;13.00;7.60;;;;;;;15.68;100.00;101869.72;4974896;28;20037;-74
2023/09/15 07:56:24;;;;;;;9.32;6.00;;;;;;;15.85;100.00;101870.34;4974572;28;20031;-76
2023/09/15 07:58:49;;;;;;;10.30;7.22;;;;;;;15.70;98.90;101843.56;4974345;28;20037;-75
2023/09/15 08:01:15;;;;;;;12.20;8.63;;;;;;;15.73;98.10;101854.63;4974175;28;20027;-75
2023/09/15 08:03:40;;;;;;;10.50;7.68;;;;;;;15.90;100.00;101848.22;4974666;28;20034;-74
2023/09/15 08:06:08;;;;;;;10.50;6.90;;;;;;;16.06;98.63;101861.03;4974247;28;20034;-74
2023/09/15 08:08:33;;;;;;;10.60;7.43;;;;;;;15.96;96.02;101858.25;4974230;28;20034;-73
2023/09/15 08:10:59;;;;;;;10.63;7.00;;;;;;;16.03;99.32;101858.66;4973628;28;20365;-77
2023/09/15 08:13:24;;;;;;;11.07;6.25;;;;;;;16.04;100.00;101855.13;4974047;28;20101;-77
2023/09/15 08:15:51;;;;;;;11.68;6.53;;;;;;;16.19;99.76;101851.41;4974083;28;20031;-73
2023/09/15 08:18:18;;;;;;;13.73;7.38;;;;;;;16.23;99.96;101842.47;4973955;28;20047;-73
2023/09/15 08:20:43;;;;;;;12.02;8.40;;;;;;;16.12;97.80;101844.97;4955962;28;20159;-73
2023/09/15 08:23:09;;;;;;;12.32;8.68;;;;;;;16.13;96.47;101858.84;4955941;28;20544;-75
2023/09/15 08:25:34;;;;;;;12.75;8.45;;;;;;;16.13;97.79;101862.28;4973800;28;20076;-75
2023/09/15 08:28:02;;;;;;;10.93;8.43;;;;;;;16.14;98.97;101863.13;4973641;28;20415;-76
2023/09/15 08:30:27;;;;;;;11.30;7.68;;;;;;;16.17;99.43;101855.09;4956563;28;20027;-75
2023/09/15 08:32:52;;;;;;;10.82;7.82;;;;;;;16.08;98.37;101856.56;4973660;28;20038;-74
2023/09/15 08:35:18;;;;;;;9.32;8.23;;;;;;;16.00;95.68;101853.63;4973716;28;20384;-76
2023/09/15 08:37:43;;;;;;;11.60;8.07;;;;;;;15.83;97.01;101822.72;4995872;22;20188;-76
2023/09/15 08:40:10;;;;;;;10.02;7.65;;;;;;;16.04;99.07;101858.56;4973854;28;20076;-76
2023/09/15 08:42:36;;;;;;;11.95;7.28;;;;;;;16.14;99.22;101848.31;4973615;28;20023;-76
2023/09/15 08:45:04;;;;;;;11.38;7.65;;;;;;;16.08;98.19;101835.72;4973900;28;20046;-76
2023/09/15 08:47:34;;;;;;;11.23;8.13;;;;;;;16.20;98.83;101860.06;4974325;28;20034;-76
2023/09/15 08:50:07;;;;;;;11.85;7.72;;;;;;;15.77;98.55;101777.09;4979709;22;20512;-77
2023/09/15 08:56:23;;;;;;;10.40;8.45;;;;;;;16.46;100.00;101853.03;4973643;28;20096;-77
2023/09/15 08:59:03;;;;;;;12.13;7.03;;;;;;;16.23;98.13;101792.94;4956490;28;20441;-78
2023/09/15 09:01:38;;;;;;;11.30;6.93;;;;;;;15.90;98.46;101715.38;4973381;28;20054;-78
2023/09/15 09:04:07;;;;;;;11.23;8.07;;;;;;;16.66;96.25;101828.94;4973183;28;20092;-78
2023/09/15 09:06:39;;;;;;;9.68;7.07;;;;;;;16.38;97.30;101782.34;4972613;28;20391;-78
2023/09/15 09:09:10;;;;;;;10.23;7.40;;;;;;;16.81;96.83;101838.31;4973165;28;20395;-76
2023/09/15 09:11:36;;;;;;;9.05;7.60;;;;;;;16.19;93.59;101741.13;4972967;28;20532;-76
2023/09/15 09:14:12;;;;;;;9.73;8.15;;;;;;;16.68;93.33;101841.88;4973402;28;20114;-79
2023/09/15 09:17:00;;;;;;;11.05;7.00;;;;;;;16.75;94.19;101830.91;4973136;28;20484;-76
2023/09/15 09:19:37;;;;;;;11.50;7.45;;;;;;;15.86;93.93;101692.28;5024033;22;20043;-77
2023/09/15 09:22:08;;;;;;;11.20;7.53;;;;;;;16.86;95.66;101836.19;4973018;28;20030;-76
2023/09/15 09:24:37;;;;;;;8.63;7.28;;;;;;;16.91;94.55;101834.09;4973029;28;20080;-75
2023/09/15 09:27:17;;;;;;;10.27;7.85;;;;;;;16.31;93.84;101719.38;4973233;28;20062;-78
2023/09/15 09:30:15;;;;;;;11.75;9.07;;;;;;;16.92;93.73;101829.69;4973031;28;20511;-76
2023/09/15 09:32:40;;;;;;;10.90;7.90;;;;;;;16.16;94.07;101684.88;4973566;28;20138;-76
2023/09/15 09:35:06;;;;;;;10.13;6.72;;;;;;;16.52;93.47;101717.00;4974385;28;20428;-76
2023/09/15 09:37:37;;;;;;;11.27;8.18;;;;;;;16.30;93.40;101673.41;4973841;28;20530;-76
2023/09/15 09:40:12;;;;;;;10.20;7.97;;;;;;;16.40;93.34;101674.41;4973729;28;20069;-78
2023/09/15 09:42:49;;;;;;;9.75;7.38;;;;;;;17.05;93.70;101773.03;4973646;28;20081;-77
2023/09/15 09:45:15;;;;;;;8.10;5.93;;;;;;;16.63;92.63;101672.72;4953811;29;20044;-76
2023/09/15 09:48:02;;;;;;;14.90;7.75;;;;;;;17.60;94.02;101818.44;4953547;29;20053;-75
2023/09/15 09:50:38;;;;;;;12.75;7.82;;;;;;;16.78;91.17;101674.19;4954152;28;20063;-77
2023/09/15 09:53:09;;;;;;;8.63;6.70;;;;;;;17.75;90.75;101811.22;4953945;29;20046;-77
2023/09/15 09:55:35;;;;;;;10.10;7.23;;;;;;;17.47;88.38;101788.97;4953598;28;20039;-76
2023/09/15 09:58:15;;;;;;;10.45;6.93;;;;;;;17.38;89.71;101764.41;4953527;29;20516;-76
2023/09/15 10:01:09;;;;;;;11.43;8.15;;;;;;;17.72;90.17;101816.69;4954050;29;20035;-78
2023/09/15 10:03:35;;;;;;;10.18;7.22;;;;;;;17.83;89.29;101818.47;4953800;29;20055;-75
2023/09/15 10:08:41;;;;;;;11.02;7.75;;;;;;;17.53;86.81;101748.50;4970552;28;20051;-76
2023/09/15 10:11:39;;;;;;;10.60;7.20;;;;;;;17.97;88.41;101808.59;4970751;28;20515;-74
2023/09/15 10:14:11;;;;;;;11.85;8.00;;;;;;;17.66;88.23;101751.81;4972245;28;20152;-76
2023/09/15 10:16:48;;;;;;;9.77;7.68;;;;;;;17.03;90.17;101631.41;4972448;28;20041;-76
2023/09/15 10:22:10;;;;;;;10.00;7.57;;;;;;;18.18;88.16;101781.69;5021339;22;20051;-76
2023/09/15 10:24:35;;;;;;;9.00;6.20;;;;;;;18.37;88.25;101781.06;4972140;28;20030;-75
2023/09/15 10:27:18;;;;;;;10.40;7.70;;;;;;;18.22;88.23;101760.44;4971698;28;20362;-76
2023/09/15 10:29:44;;;;;;;12.27;8.02;;;;;;;18.43;85.51;101778.78;4972057;28;20118;-76
2023/09/15 10:32:34;;;;;;;11.60;8.13;;;;;;;18.45;87.75;101776.03;4972177;28;20023;-76
2023/09/15 10:34:59;;;;;;;13.55;9.10;;;;;;;18.45;84.96;101766.41;4971654;28;20031;-74
2023/09/15 10:37:32;;;;;;;10.70;7.75;;;;;;;18.12;85.92;101722.91;4972135;28;20677;-76
2023/09/15 10:39:59;;;;;;;12.18;8.30;;;;;;;18.45;87.40;101758.56;4994759;22;20055;-75
2023/09/15 10:42:27;;;;;;;12.02;8.25;;;;;;;18.54;84.98;101767.44;4954678;28;20027;-77
2023/09/15 10:44:55;;;;;;;12.10;9.05;;;;;;;18.31;86.97;101715.25;4971492;28;20027;-73
2023/09/15 10:47:21;;;;;;;10.30;7.07;;;;;;;18.80;85.00;101760.13;4971664;28;20118;-74
2023/09/15 10:50:04;;;;;;;8.32;7.07;;;;;;;18.55;83.72;101730.69;4971715;28;20550;-72
2023/09/15 10:52:36;;;;;;;9.77;7.00;;;;;;;18.91;85.48;101757.44;4971873;28;20478;-73
2023/09/15 10:55:05;;;;;;;8.00;5.47;;;;;;;19.06;85.10;101761.38;4971627;28;20026;-74
2023/09/15 10:57:35;;;;;;;9.63;7.97;;;;;;;19.04;82.78;101752.00;4971434;28;20034;-72
2023/09/15 11:00:06;;;;;;;9.50;7.93;;;;;;;19.04;82.31;101755.44;4971734;28;20033;-78
2023/09/15 11:02:34;;;;;;;8.38;5.55;;;;;;;18.99;81.47;101728.84;4971529;28;20281;-75
2023/09/15 11:05:00;;;;;;;9.50;5.45;;;;;;;19.19;81.90;101748.91;4971681;28;20056;-75
2023/09/15 11:07:26;;;;;;;9.40;6.60;;;;;;;19.16;81.34;101737.84;4971686;28;20035;-77
2023/09/15 11:10:02;;;;;;;8.73;6.45;;;;;;;18.78;81.00;101668.66;4977691;22;20110;-76
2023/09/15 11:16:13;;;;;;;9.68;6.22;;;;;;;19.11;79.74;101690.31;4911543;28;20036;-75
2023/09/15 11:18:39;;;;;;;7.30;5.30;;;;;;;19.56;81.59;101735.28;4911878;29;20051;-74
2023/09/15 11:21:07;;;;;;;9.35;6.15;;;;;;;19.39;78.44;101704.47;4911819;29;20045;-75
2023/09/15 11:23:33;;;;;;;8.02;4.97;;;;;;;19.55;78.53;101709.19;4895996;29;20383;-75
2023/09/15 11:25:59;;;;;;;10.43;5.97;;;;;;;19.70;78.50;101734.13;4910738;29;20138;-77
2023/09/15 11:28:24;;;;;;;11.38;5.50;;;;;;;19.62;79.56;101716.44;4911471;28;20040;-77
2023/09/15 11:30:53;;;;;;;10.93;6.90;;;;;;;19.54;79.25;101702.31;4911657;28;20047;-76
2023/09/15 11:33:18;;;;;;;9.05;5.07;;;;;;;19.51;78.97;101694.72;4911927;28;20044;-75
2023/09/15 11:35:56;;;;;;;10.60;6.30;;;;;;;19.39;79.52;101662.56;4911917;29;20393;-76
2023/09/15 11:42:01;;;;;;;7.82;4.47;;;;;;;19.00;78.93;101588.31;4911826;29;20063;-76
2023/09/15 11:44:32;;;;;;;9.98;5.43;;;;;;;19.76;78.38;101708.22;4911818;29;20425;-73
2023/09/15 11:47:16;;;;;;;;;;;;;;;19.86;81.32;101723.09;4942398;28;20484;-76
2023/09/15 11:49:42;;;;;;;7.75;5.93;;;;;;;19.37;77.98;101623.41;4971267;28;19997;-73
2023/09/15 11:52:31;;;;;;;6.10;4.13;;;;;;;19.92;77.22;101707.66;4970951;28;20042;-75
2023/09/15 11:54:56;;;;;;;9.18;5.55;;;;;;;19.92;76.57;101717.31;4971449;28;20035;-73
2023/09/15 11:57:22;;;;;;;10.13;5.88;;;;;;;19.87;80.21;101702.03;4971394;28;20105;-74
2023/09/15 11:59:47;;;;;;;9.07;6.30;;;;;;;19.96;78.04;101713.47;4971332;28;20050;-76
2023/09/15 12:02:18;;;;;;;8.15;5.18;;;;;;;20.03;76.77;101704.09;4971655;28;20485;-72
2023/09/15 12:04:44;;;;;;;9.80;4.90;;;;;;;19.85;78.82;101664.59;4971659;28;20077;-75
2023/09/15 12:09:45;;;;;;;4.82;3.22;;;;;;;20.30;72.63;101701.63;5131660;22;20059;-74
2023/09/15 12:12:15;;;;;;;6.03;3.53;;;;;;;20.36;71.97;101702.88;4970773;28;20062;-73
2023/09/15 12:14:42;;;;;;;7.25;3.67;;;;;;;20.31;72.62;101695.41;4952905;28;20038;-74
2023/09/15 12:17:08;;;;;;;6.40;3.55;;;;;;;20.28;70.32;101663.38;4970699;28;20110;-75
2023/09/15 12:19:36;;;;;;;7.35;3.97;;;;;;;20.56;71.17;101690.59;4970646;28;20107;-75